createdAt,value
2018-07-14T00:02:02.118Z,16.40
2018-07-14T00:04:30.590Z,16.30
2018-07-14T00:07:00.080Z,16.30
2018-07-14T00:09:28.770Z,16.30
2018-07-14T00:11:57.958Z,16.20
2018-07-14T00:14:26.378Z,16.20
2018-07-14T00:16:55.272Z,16.20
2018-07-14T00:19:23.721Z,16.20
2018-07-14T00:21:52.148Z,16.10
2018-07-14T00:24:20.699Z,16.10
2018-07-14T00:26:49.318Z,16.10
2018-07-14T00:29:17.890Z,16.10
2018-07-14T00:31:46.370Z,16.00
2018-07-14T00:34:14.776Z,16.00
2018-07-14T00:36:43.230Z,16.00
2018-07-14T00:39:11.697Z,16.00
2018-07-14T00:41:40.253Z,16.00
2018-07-14T00:44:08.714Z,16.00
2018-07-14T00:46:37.261Z,15.90
2018-07-14T00:49:06.051Z,15.90
2018-07-14T00:51:34.703Z,15.90
2018-07-14T00:54:03.213Z,15.90
2018-07-14T00:56:31.971Z,15.90
2018-07-14T00:59:00.452Z,15.80
2018-07-14T01:01:28.921Z,15.80
2018-07-14T01:03:57.898Z,15.80
2018-07-14T01:06:26.393Z,15.80
2018-07-14T01:08:54.808Z,15.90
2018-07-14T01:11:23.266Z,15.80
2018-07-14T01:13:51.702Z,15.90
2018-07-14T01:16:20.128Z,15.80
2018-07-14T01:18:48.540Z,15.80
2018-07-14T01:21:16.986Z,15.70
2018-07-14T01:23:45.412Z,15.70
2018-07-14T01:26:13.837Z,15.70
2018-07-14T01:28:42.266Z,15.70
2018-07-14T01:31:10.765Z,15.70
2018-07-14T01:33:39.223Z,15.60
2018-07-14T01:36:07.619Z,15.60
2018-07-14T01:38:36.125Z,15.60
2018-07-14T01:41:04.681Z,15.50
2018-07-14T01:43:33.105Z,15.50
2018-07-14T01:46:01.508Z,15.50
2018-07-14T01:48:30.284Z,15.50
2018-07-14T01:50:58.708Z,15.40
2018-07-14T01:53:27.714Z,15.50
2018-07-14T01:55:56.153Z,15.50
2018-07-14T01:58:24.634Z,15.40
2018-07-14T02:00:53.075Z,15.40
2018-07-14T02:03:21.645Z,15.40
2018-07-14T02:05:50.062Z,15.40
2018-07-14T02:08:18.749Z,15.30
2018-07-14T02:10:47.267Z,15.30
2018-07-14T02:13:15.882Z,15.30
2018-07-14T02:15:44.313Z,15.30
2018-07-14T02:18:12.726Z,15.30
2018-07-14T02:20:41.380Z,15.30
2018-07-14T02:23:09.917Z,15.20
2018-07-14T02:25:38.367Z,15.20
2018-07-14T02:28:07.092Z,15.20
2018-07-14T02:30:35.719Z,15.20
2018-07-14T02:33:04.177Z,15.20
2018-07-14T02:35:33.674Z,15.20
2018-07-14T02:38:02.410Z,15.20
2018-07-14T02:40:30.853Z,15.10
2018-07-14T02:42:59.261Z,15.10
2018-07-14T02:45:27.704Z,15.10
2018-07-14T02:47:56.133Z,15.10
2018-07-14T02:50:25.017Z,15.10
2018-07-14T02:52:53.907Z,15.10
2018-07-14T02:55:22.942Z,15.10
2018-07-14T02:57:51.339Z,15.10
2018-07-14T03:00:19.787Z,15.10
2018-07-14T03:02:48.225Z,15.00
2018-07-14T03:05:16.764Z,15.00
2018-07-14T03:07:45.770Z,15.00
2018-07-14T03:10:14.248Z,15.00
2018-07-14T03:12:42.748Z,15.00
2018-07-14T03:15:11.192Z,15.00
2018-07-14T03:17:39.741Z,15.00
2018-07-14T03:20:08.397Z,15.00
2018-07-14T03:22:36.856Z,15.00
2018-07-14T03:25:05.605Z,14.90
2018-07-14T03:27:34.033Z,14.90
2018-07-14T03:30:02.651Z,14.90
2018-07-14T03:32:31.166Z,14.90
2018-07-14T03:34:59.587Z,14.80
2018-07-14T03:37:28.246Z,14.80
2018-07-14T03:39:56.906Z,14.80
2018-07-14T03:42:25.703Z,14.80
2018-07-14T03:44:54.172Z,14.80
2018-07-14T03:47:22.637Z,14.80
2018-07-14T03:49:51.071Z,14.80
2018-07-14T03:52:19.785Z,14.80
2018-07-14T03:54:48.608Z,14.80
2018-07-14T03:57:17.265Z,14.80
2018-07-14T03:59:45.745Z,14.80
2018-07-14T04:02:14.157Z,14.80
2018-07-14T04:04:42.601Z,14.80
2018-07-14T04:07:11.116Z,14.80
2018-07-14T04:09:39.529Z,14.80
2018-07-14T04:12:08.008Z,14.80
2018-07-14T04:14:36.786Z,14.80
2018-07-14T04:17:05.269Z,14.80
2018-07-14T04:19:33.737Z,14.80
2018-07-14T04:22:02.320Z,14.80
2018-07-14T04:24:31.105Z,14.90
2018-07-14T04:26:59.586Z,14.90
2018-07-14T04:29:28.211Z,14.90
2018-07-14T04:31:56.811Z,14.90
2018-07-14T04:34:25.279Z,15.00
2018-07-14T04:36:53.720Z,15.00
2018-07-14T04:39:22.170Z,15.00
2018-07-14T04:41:50.719Z,15.00
2018-07-14T04:44:19.208Z,15.10
2018-07-14T04:46:47.631Z,15.10
2018-07-14T04:49:16.136Z,15.20
2018-07-14T04:51:44.806Z,15.20
2018-07-14T04:54:13.432Z,15.30
2018-07-14T04:56:41.873Z,15.30
2018-07-14T04:59:10.423Z,15.30
2018-07-14T05:01:38.849Z,15.40
2018-07-14T05:04:07.959Z,15.40
2018-07-14T05:06:36.501Z,15.50
2018-07-14T05:09:06.007Z,15.50
2018-07-14T05:11:34.534Z,15.60
2018-07-14T05:14:03.146Z,15.60
2018-07-14T05:16:31.871Z,15.70
2018-07-14T05:19:00.665Z,15.70
2018-07-14T05:21:29.211Z,15.80
2018-07-14T05:23:57.915Z,15.80
2018-07-14T05:26:27.470Z,15.90
2018-07-14T05:28:56.018Z,16.00
2018-07-14T05:31:24.620Z,16.00
2018-07-14T05:33:53.677Z,16.00
2018-07-14T05:36:22.240Z,16.10
2018-07-14T05:38:50.712Z,16.10
2018-07-14T05:41:19.435Z,16.20
2018-07-14T05:43:47.928Z,16.30
2018-07-14T05:46:16.419Z,16.40
2018-07-14T05:48:45.116Z,16.40
2018-07-14T05:51:13.575Z,16.50
2018-07-14T05:53:42.045Z,16.60
2018-07-14T05:56:10.843Z,16.70
2018-07-14T05:58:39.518Z,16.80
2018-07-14T06:01:07.985Z,16.80
2018-07-14T06:03:36.515Z,17.00
2018-07-14T06:06:05.211Z,17.20
2018-07-14T06:08:33.765Z,17.40
2018-07-14T06:11:02.183Z,17.60
2018-07-14T06:13:30.767Z,17.80
2018-07-14T06:15:59.221Z,18.00
2018-07-14T06:18:28.284Z,18.20
2018-07-14T06:20:56.935Z,18.20
2018-07-14T06:23:25.641Z,18.40
2018-07-14T06:25:54.401Z,18.70
2018-07-14T06:28:22.836Z,18.80
2018-07-14T06:30:51.361Z,18.90
2018-07-14T06:33:20.046Z,19.00
2018-07-14T06:35:48.577Z,19.10
2018-07-14T06:38:17.067Z,19.30
2018-07-14T06:40:45.796Z,19.60
2018-07-14T06:43:14.309Z,19.90
2018-07-14T06:48:10.913Z,20.30
2018-07-14T06:50:39.730Z,20.50
2018-07-14T06:53:08.181Z,20.90
2018-07-14T06:55:36.739Z,21.20
2018-07-14T06:58:05.423Z,21.50
2018-07-14T07:00:33.810Z,21.70
2018-07-14T07:03:02.261Z,22.10
2018-07-14T07:05:30.690Z,22.30
2018-07-14T07:07:59.131Z,22.60
2018-07-14T07:10:27.571Z,22.80
2018-07-14T07:12:56.033Z,23.10
2018-07-14T07:15:24.551Z,23.40
2018-07-14T07:17:53.010Z,23.70
2018-07-14T07:20:21.471Z,23.60
2018-07-14T07:22:51.122Z,23.90
2018-07-14T07:25:19.636Z,24.20
2018-07-14T07:27:48.714Z,24.70
2018-07-14T07:30:17.156Z,25.30
2018-07-14T07:32:45.771Z,25.50
2018-07-14T07:35:14.213Z,25.40
2018-07-14T07:37:42.780Z,25.40
2018-07-14T07:40:11.315Z,25.40
2018-07-14T07:42:39.927Z,25.90
2018-07-14T07:45:14.038Z,26.30
2018-07-14T07:47:42.972Z,26.30
2018-07-14T07:52:41.472Z,26.70
2018-07-14T07:55:10.354Z,27.20
2018-07-14T07:57:38.799Z,27.50
2018-07-14T08:00:07.522Z,27.40
2018-07-14T08:02:36.002Z,27.70
2018-07-14T08:05:05.224Z,28.00
2018-07-14T08:07:33.648Z,28.20
2018-07-14T08:10:02.148Z,28.60
2018-07-14T08:12:30.608Z,29.10
2018-07-14T08:14:59.190Z,29.60
2018-07-14T08:17:27.653Z,29.30
2018-07-14T08:19:56.811Z,29.20
2018-07-14T08:22:25.948Z,29.80
2018-07-14T08:24:54.713Z,29.70
2018-07-14T08:27:23.217Z,30.00
2018-07-14T08:29:51.731Z,30.40
2018-07-14T08:32:20.185Z,30.40
2018-07-14T08:34:48.734Z,30.90
2018-07-14T08:37:17.400Z,31.40
2018-07-14T08:39:46.078Z,32.00
2018-07-14T08:42:14.559Z,32.20
2018-07-14T08:44:43.010Z,32.10
2018-07-14T08:47:11.774Z,32.10
2018-07-14T08:49:40.335Z,31.90
2018-07-14T08:52:09.128Z,32.10
2018-07-14T08:54:37.774Z,32.40
2018-07-14T08:57:06.461Z,32.60
2018-07-14T08:59:35.104Z,32.60
2018-07-14T09:02:03.556Z,32.80
2018-07-14T09:04:32.442Z,33.00
2018-07-14T09:07:00.979Z,33.20
2018-07-14T09:09:29.414Z,33.30
2018-07-14T09:11:57.957Z,33.30
2018-07-14T09:14:26.408Z,33.10
2018-07-14T09:16:54.885Z,33.50
2018-07-14T09:19:23.391Z,33.80
2018-07-14T09:21:53.381Z,34.20
2018-07-14T09:24:22.201Z,34.60
2018-07-14T09:26:50.785Z,34.80
2018-07-14T09:29:19.490Z,35.20
2018-07-14T09:31:48.171Z,34.60
2018-07-14T09:34:16.792Z,34.40
2018-07-14T09:36:45.585Z,34.70
2018-07-14T09:39:14.149Z,34.80
2018-07-14T09:41:42.687Z,35.70
2018-07-14T09:44:11.922Z,36.50
2018-07-14T09:46:40.541Z,36.80
2018-07-14T09:49:08.993Z,36.70
2018-07-14T09:51:37.500Z,35.90
2018-07-14T09:54:06.023Z,36.20
2018-07-14T09:56:34.546Z,36.40
2018-07-14T09:59:02.969Z,37.00
2018-07-14T10:01:31.675Z,37.30
2018-07-14T10:04:00.266Z,37.70
2018-07-14T10:06:28.769Z,37.50
2018-07-14T10:08:57.569Z,36.90
2018-07-14T10:11:26.140Z,38.00
2018-07-14T10:13:55.238Z,38.50
2018-07-14T10:16:23.712Z,38.80
2018-07-14T10:18:52.213Z,39.20
2018-07-14T10:21:20.926Z,39.30
2018-07-14T10:23:49.386Z,38.50
2018-07-14T10:26:17.858Z,39.10
2018-07-14T10:28:47.566Z,39.30
2018-07-14T10:31:16.141Z,39.30
2018-07-14T10:33:44.991Z,39.40
2018-07-14T10:36:13.610Z,38.80
2018-07-14T10:38:42.473Z,39.00
2018-07-14T10:41:10.910Z,39.50
2018-07-14T10:43:39.495Z,40.30
2018-07-14T10:46:08.047Z,40.80
2018-07-14T10:48:36.536Z,40.10
2018-07-14T10:51:04.966Z,40.10
2018-07-14T10:53:34.020Z,40.80
2018-07-14T10:56:02.619Z,41.10
2018-07-14T10:58:31.107Z,41.10
2018-07-14T11:00:59.612Z,41.70
2018-07-14T11:03:28.215Z,41.70
2018-07-14T11:05:56.666Z,42.00
2018-07-14T11:08:25.207Z,41.50
2018-07-14T11:10:53.668Z,41.80
2018-07-14T11:13:22.322Z,42.60
2018-07-14T11:15:51.565Z,41.90
2018-07-14T11:18:20.016Z,42.20
2018-07-14T11:20:48.487Z,41.40
2018-07-14T11:23:16.903Z,42.20
2018-07-14T11:25:45.434Z,42.10
2018-07-14T11:28:13.919Z,40.50
2018-07-14T11:30:42.447Z,41.40
2018-07-14T11:33:10.948Z,39.80
2018-07-14T11:35:39.418Z,40.70
2018-07-14T11:38:08.053Z,41.10
2018-07-14T11:40:36.581Z,40.70
2018-07-14T11:43:05.149Z,40.40
2018-07-14T11:45:33.600Z,40.00
2018-07-14T11:48:02.087Z,39.10
2018-07-14T11:50:30.530Z,39.90
2018-07-14T11:52:59.124Z,40.40
2018-07-14T11:55:27.645Z,40.60
2018-07-14T11:57:56.062Z,40.90
2018-07-14T12:00:24.557Z,40.70
2018-07-14T12:02:52.989Z,41.50
2018-07-14T12:05:21.561Z,42.20
2018-07-14T12:07:50.091Z,40.20
2018-07-14T12:10:18.519Z,40.00
2018-07-14T12:12:46.961Z,41.00
2018-07-14T12:15:15.432Z,40.80
2018-07-14T12:17:43.904Z,39.60
2018-07-14T12:22:40.452Z,40.50
2018-07-14T12:25:08.911Z,39.70
2018-07-14T12:27:38.045Z,38.20
2018-07-14T12:30:06.527Z,38.80
2018-07-14T12:32:34.920Z,37.40
2018-07-14T12:35:03.400Z,39.40
2018-07-14T12:37:31.901Z,40.90
2018-07-14T12:40:00.436Z,41.60
2018-07-14T12:42:28.852Z,41.80
2018-07-14T12:44:57.404Z,42.10
2018-07-14T12:47:25.862Z,42.10
2018-07-14T12:49:54.342Z,42.50
2018-07-14T12:52:22.796Z,42.60
2018-07-14T12:54:51.203Z,42.40
2018-07-14T12:57:19.696Z,42.40
2018-07-14T12:59:48.187Z,42.60
2018-07-14T13:02:16.763Z,41.90
2018-07-14T13:04:45.229Z,41.50
2018-07-14T13:07:13.734Z,41.90
2018-07-14T13:09:42.293Z,41.50
2018-07-14T13:12:11.477Z,41.50
2018-07-14T13:14:40.050Z,40.80
2018-07-14T13:17:08.573Z,40.60
2018-07-14T13:19:37.094Z,40.30
2018-07-14T13:22:05.557Z,40.60
2018-07-14T13:24:34.050Z,41.10
2018-07-14T13:27:02.584Z,40.90
2018-07-14T13:29:31.069Z,41.00
2018-07-14T13:31:59.510Z,41.00
2018-07-14T13:34:27.938Z,40.70
2018-07-14T13:36:56.513Z,40.10
2018-07-14T13:39:25.085Z,39.70
2018-07-14T13:41:53.585Z,39.10
2018-07-14T13:44:22.147Z,39.30
2018-07-14T13:46:50.613Z,39.30
2018-07-14T13:49:19.144Z,39.40
2018-07-14T13:51:47.653Z,39.00
2018-07-14T13:54:16.293Z,38.60
2018-07-14T13:56:44.764Z,38.20
2018-07-14T13:59:13.247Z,38.30
2018-07-14T14:01:41.703Z,38.00
2018-07-14T14:04:10.221Z,38.00
2018-07-14T14:06:38.689Z,38.30
2018-07-14T14:09:07.486Z,38.10
2018-07-14T14:11:36.079Z,37.90
2018-07-14T14:14:04.817Z,37.50
2018-07-14T14:16:33.364Z,37.20
2018-07-14T14:19:01.906Z,37.00
2018-07-14T14:21:30.540Z,36.90
2018-07-14T14:23:59.175Z,36.80
2018-07-14T14:28:56.604Z,36.30
2018-07-14T14:31:25.159Z,36.00
2018-07-14T14:33:53.716Z,35.90
2018-07-14T14:36:22.232Z,35.70
2018-07-14T14:38:50.771Z,35.90
2018-07-14T14:41:19.804Z,35.80
2018-07-14T14:43:48.398Z,35.60
2018-07-14T14:46:16.871Z,35.30
2018-07-14T14:48:45.359Z,34.80
2018-07-14T14:51:13.982Z,34.60
2018-07-14T14:53:42.490Z,34.10
2018-07-14T14:56:11.760Z,33.80
2018-07-14T14:58:40.163Z,33.60
2018-07-14T15:01:08.614Z,33.50
2018-07-14T15:03:37.111Z,33.20
2018-07-14T15:06:05.573Z,32.80
2018-07-14T15:08:34.700Z,32.60
2018-07-14T15:11:03.106Z,32.50
2018-07-14T15:13:31.639Z,32.40
2018-07-14T15:16:00.055Z,32.30
2018-07-14T15:18:28.556Z,32.20
2018-07-14T15:20:57.096Z,32.10
2018-07-14T15:23:25.687Z,32.00
2018-07-14T15:25:54.890Z,31.80
2018-07-14T15:28:23.281Z,31.70
2018-07-14T15:30:51.769Z,31.40
2018-07-14T15:33:20.366Z,31.30
2018-07-14T15:35:48.639Z,31.20
2018-07-14T15:38:17.274Z,31.00
2018-07-14T15:40:45.717Z,30.80
2018-07-14T15:43:14.859Z,30.60
2018-07-14T15:45:43.358Z,30.50
2018-07-14T15:50:39.992Z,30.20
2018-07-14T15:53:08.605Z,30.10
2018-07-14T15:55:37.087Z,30.00
2018-07-14T15:58:06.040Z,29.90
2018-07-14T16:00:34.504Z,29.80
2018-07-14T16:03:02.961Z,29.70
2018-07-14T16:05:32.241Z,29.50
2018-07-14T16:08:00.812Z,29.40
2018-07-14T16:10:29.274Z,29.20
2018-07-14T16:12:57.772Z,29.20
2018-07-14T16:15:26.892Z,29.10
2018-07-14T16:17:55.401Z,29.00
2018-07-14T16:20:23.865Z,29.00
2018-07-14T16:22:52.463Z,28.90
2018-07-14T16:25:20.931Z,28.80
2018-07-14T16:27:49.995Z,28.70
2018-07-14T16:30:18.784Z,28.50
2018-07-14T16:32:47.272Z,28.40
2018-07-14T16:35:15.787Z,28.40
2018-07-14T16:37:45.017Z,28.30
2018-07-14T16:40:14.301Z,28.20
2018-07-14T16:42:42.791Z,28.10
2018-07-14T16:45:11.849Z,28.10
2018-07-14T16:47:40.396Z,28.10
2018-07-14T16:50:09.043Z,28.00
2018-07-14T16:52:37.559Z,27.80
2018-07-14T16:55:06.355Z,27.70
2018-07-14T16:57:34.931Z,27.60
2018-07-14T17:00:03.445Z,27.70
2018-07-14T17:02:32.110Z,27.60
2018-07-14T17:05:00.595Z,27.50
2018-07-14T17:07:29.136Z,27.50
2018-07-14T17:09:57.770Z,27.40
2018-07-14T17:12:26.763Z,27.30
2018-07-14T17:14:55.331Z,27.20
2018-07-14T17:19:52.376Z,27.10
2018-07-14T17:22:21.074Z,27.00
2018-07-14T17:24:49.571Z,26.90
2018-07-14T17:27:18.810Z,26.80
2018-07-14T17:29:47.317Z,26.80
2018-07-14T17:32:15.878Z,26.70
2018-07-14T17:34:44.338Z,26.60
2018-07-14T17:37:12.848Z,26.60
2018-07-14T17:39:41.345Z,26.50
2018-07-14T17:42:09.877Z,26.50
2018-07-14T17:44:38.395Z,26.40
2018-07-14T17:47:06.814Z,26.40
2018-07-14T17:49:35.335Z,26.30
2018-07-14T17:52:03.966Z,26.10
2018-07-14T17:54:32.366Z,26.10
2018-07-14T17:57:00.965Z,26.00
2018-07-14T17:59:29.505Z,26.00
2018-07-14T18:04:26.213Z,25.90
2018-07-14T18:06:54.715Z,25.80
2018-07-14T18:09:23.264Z,25.70
2018-07-14T18:11:51.816Z,25.60
2018-07-14T18:14:20.443Z,25.60
2018-07-14T18:16:48.964Z,25.40
2018-07-14T18:19:17.576Z,25.20
2018-07-14T18:21:46.114Z,25.20
2018-07-14T18:24:14.667Z,25.10
2018-07-14T18:26:43.235Z,25.10
2018-07-14T18:29:11.772Z,25.10
2018-07-14T18:31:40.353Z,25.00
2018-07-14T18:35:57.380Z,24.80
2018-07-14T18:38:26.071Z,24.70
2018-07-14T18:43:23.595Z,24.20
2018-07-14T18:45:52.265Z,24.00
2018-07-14T18:48:20.864Z,24.00
2018-07-14T18:50:49.726Z,23.60
2018-07-14T18:53:18.842Z,23.50
2018-07-14T18:55:47.442Z,23.60
2018-07-14T18:58:16.896Z,23.50
2018-07-14T19:00:46.928Z,23.30
2018-07-14T19:03:15.654Z,22.80
2018-07-14T19:05:44.272Z,22.80
2018-07-14T19:08:12.952Z,22.80
2018-07-14T19:10:41.855Z,22.80
2018-07-14T19:13:11.487Z,22.70
2018-07-14T19:15:40.085Z,22.60
2018-07-14T19:18:09.469Z,22.50
2018-07-14T19:20:38.489Z,22.40
2018-07-14T19:23:07.192Z,22.40
2018-07-14T19:25:35.735Z,22.20
2018-07-14T19:28:04.503Z,22.80
2018-07-14T19:30:33.160Z,22.90
2018-07-14T19:33:02.592Z,22.90
2018-07-14T19:35:31.191Z,22.90
2018-07-14T19:38:04.631Z,22.90
2018-07-14T19:40:33.343Z,22.80
2018-07-14T19:43:01.845Z,22.80
2018-07-14T19:45:30.530Z,22.70
2018-07-14T19:47:59.109Z,22.60
2018-07-14T19:50:27.889Z,22.50
2018-07-14T19:52:56.381Z,22.40
2018-07-14T19:55:24.843Z,22.40
2018-07-14T19:57:53.682Z,22.30
2018-07-14T20:00:22.306Z,22.30
2018-07-14T20:02:50.868Z,22.10
2018-07-14T20:05:19.341Z,22.00
2018-07-14T20:07:48.046Z,21.70
2018-07-14T20:10:16.597Z,21.60
2018-07-14T20:12:45.160Z,21.60
2018-07-14T20:15:13.823Z,21.40
2018-07-14T20:17:42.383Z,21.50
2018-07-14T20:20:10.971Z,21.40
2018-07-14T20:22:39.884Z,21.30
2018-07-14T20:25:09.962Z,21.20
2018-07-14T20:27:38.740Z,21.10
2018-07-14T20:30:07.665Z,21.10
2018-07-14T20:32:37.196Z,21.00
2018-07-14T20:35:08.677Z,21.00
2018-07-14T20:37:37.210Z,20.90
2018-07-14T20:40:05.793Z,20.80
2018-07-14T20:42:34.412Z,20.80
2018-07-14T20:45:03.032Z,20.70
2018-07-14T20:47:31.524Z,20.60
2018-07-14T20:50:00.141Z,20.50
2018-07-14T20:52:28.727Z,20.50
2018-07-14T20:54:57.234Z,20.50
2018-07-14T20:57:25.766Z,20.40
2018-07-14T20:59:54.641Z,20.30
2018-07-14T21:02:23.157Z,20.20
2018-07-14T21:04:51.731Z,20.20
2018-07-14T21:07:20.906Z,20.20
2018-07-14T21:09:49.481Z,20.10
2018-07-14T21:12:19.414Z,20.00
2018-07-14T21:14:47.909Z,20.00
2018-07-14T21:17:17.143Z,20.00
2018-07-14T21:19:45.701Z,19.90
2018-07-14T21:24:06.427Z,19.50
2018-07-14T21:26:34.919Z,19.00
2018-07-14T21:29:03.545Z,18.80
2018-07-14T21:31:32.102Z,18.70
2018-07-14T21:34:00.632Z,18.70
2018-07-14T21:36:29.162Z,18.70
2018-07-14T21:38:57.855Z,18.60
2018-07-14T21:41:26.349Z,18.60
2018-07-14T21:43:55.597Z,18.60
2018-07-14T21:46:24.219Z,18.50
2018-07-14T21:48:52.759Z,18.50
2018-07-14T21:51:21.294Z,18.60
2018-07-14T21:53:49.929Z,18.30
2018-07-14T21:58:46.926Z,18.30
2018-07-14T22:01:20.790Z,18.40
2018-07-14T22:03:49.397Z,18.30
2018-07-14T22:06:17.871Z,18.40
2018-07-14T22:08:47.324Z,18.30
2018-07-14T22:11:15.802Z,18.30
2018-07-14T22:13:44.420Z,18.30
2018-07-14T22:16:12.974Z,18.30
2018-07-14T22:18:41.420Z,18.20
2018-07-14T22:21:10.053Z,18.20
2018-07-14T22:23:38.641Z,18.20
2018-07-14T22:26:07.207Z,18.30
2018-07-14T22:28:35.676Z,18.20
2018-07-14T22:31:04.274Z,18.10
2018-07-14T22:33:32.965Z,18.10
2018-07-14T22:36:01.487Z,18.20
2018-07-14T22:38:30.040Z,18.20
2018-07-14T22:40:58.538Z,18.00
2018-07-14T22:43:27.095Z,18.20
2018-07-14T22:45:55.963Z,18.10
2018-07-14T22:48:24.556Z,18.10
2018-07-14T22:50:53.033Z,18.10
2018-07-14T22:53:21.537Z,17.90
2018-07-14T22:58:18.456Z,17.80
2018-07-14T23:00:47.038Z,17.90
2018-07-14T23:03:15.881Z,17.80
2018-07-14T23:05:44.596Z,17.70
2018-07-14T23:08:13.392Z,17.70
2018-07-14T23:10:41.894Z,17.60
2018-07-14T23:13:10.906Z,17.50
2018-07-14T23:15:39.418Z,17.50
2018-07-14T23:18:07.941Z,17.40
2018-07-14T23:20:36.634Z,17.40
2018-07-14T23:23:05.139Z,17.40
2018-07-14T23:25:33.660Z,17.30
2018-07-14T23:28:02.579Z,17.30
2018-07-14T23:30:31.133Z,17.40
2018-07-14T23:32:59.713Z,17.30
2018-07-14T23:35:28.270Z,17.30
2018-07-14T23:37:56.856Z,17.20
2018-07-14T23:40:25.467Z,17.20
2018-07-14T23:42:53.909Z,17.30
2018-07-14T23:45:22.489Z,17.30
2018-07-14T23:47:50.993Z,17.10
2018-07-14T23:50:19.432Z,17.30
2018-07-14T23:52:47.963Z,17.20
2018-07-14T23:55:17.505Z,17.10
2018-07-14T23:57:46.044Z,17.00
